Time;durP1;ratioP1;P1;durP2;ratioP2;P2;SDS_P1;SDS_P2;PMS_P1;PMS_P2;Temp;Humidity;BMP_temperature;BMP_pressure;BME280_temperature;BME280_humidity;BME280_pressure;Samples;Min_cycle;Max_cycle;Signal;HPM_P1;HPM_P2
2021/01/14 00:02:02;;;;;;;2.83;1.30;;;;;;;;;;5059545;28;20573;-73
2021/01/14 00:04:30;;;;;;;3.87;1.47;;;;;;;;;;5058864;28;20764;-72
2021/01/14 00:06:57;;;;;;;2.83;2.63;;;;;;;;;;5058805;28;20473;-73
2021/01/14 00:09:25;;;;;;;2.90;1.33;;;;;;;;;;5059082;28;20454;-72
2021/01/14 00:11:53;;;;;;;2.73;1.20;;;;;;;;;;5058633;28;20457;-73
2021/01/14 00:14:21;;;;;;;4.70;1.87;;;;;;;;;;5058182;28;20783;-73
2021/01/14 00:16:48;;;;;;;2.57;1.27;;;;;;;;;;5058419;28;20466;-72
2021/01/14 00:19:16;;;;;;;3.80;1.53;;;;;;;;;;5058320;28;20548;-73
2021/01/14 00:21:48;;;;;;;2.43;1.10;;;;;;;;;;5058015;28;20489;-73
2021/01/14 00:24:15;;;;;;;2.20;1.10;;;;;;;;;;5058161;28;20456;-72
2021/01/14 00:26:43;;;;;;;6.60;1.67;;;;;;;;;;5058311;28;20954;-72
2021/01/14 00:29:11;;;;;;;3.90;1.67;;;;;;;;;;5057334;28;20468;-72
2021/01/14 00:31:41;;;;;;;2.00;1.30;;;;;;;;;;5057379;28;20462;-73
2021/01/14 00:34:09;;;;;;;3.57;1.23;;;;;;;;;;5057783;28;20465;-72
2021/01/14 00:39:20;;;;;;;4.80;1.40;;;;;;;;;;5056618;28;20465;-72
2021/01/14 00:41:48;;;;;;;4.83;2.20;;;;;;;;;;5057888;28;20603;-73
2021/01/14 00:44:16;;;;;;;2.80;1.27;;;;;;;;;;5057923;28;20454;-72
2021/01/14 00:46:44;;;;;;;2.50;1.20;;;;;;;;;;5057598;28;20509;-72
2021/01/14 00:49:11;;;;;;;2.57;1.77;;;;;;;;;;5057892;28;20454;-72
2021/01/14 00:51:39;;;;;;;3.50;1.80;;;;;;;;;;5057367;28;20484;-72
2021/01/14 00:54:07;;;;;;;2.80;1.20;;;;;;;;;;5058214;28;20469;-73
2021/01/14 00:56:35;;;;;;;5.67;1.93;;;;;;;;;;5057753;28;20552;-72
2021/01/14 00:59:02;;;;;;;6.23;1.50;;;;;;;;;;5057326;28;20523;-72
2021/01/14 01:01:31;;;;;;;2.93;1.87;;;;;;;;;;5057337;28;20529;-72
2021/01/14 01:03:59;;;;;;;3.97;1.97;;;;;;;;;;5056980;28;20458;-73
2021/01/14 01:06:33;;;;;;;3.70;1.33;;;;;;;;;;5057357;28;20462;-72
2021/01/14 01:09:00;;;;;;;4.00;2.10;;;;;;;;;;5057094;28;20523;-72
2021/01/14 01:11:31;;;;;;;2.40;1.23;;;;;;;;;;5057355;28;20465;-72
2021/01/14 01:13:58;;;;;;;3.40;1.90;;;;;;;;;;5057915;28;20735;-72
2021/01/14 01:16:25;;;;;;;6.67;2.60;;;;;;;;;;5057829;28;20454;-72
2021/01/14 01:18:54;;;;;;;4.22;2.22;;;;;;;;;;5057807;28;21137;-72
2021/01/14 01:21:23;;;;;;;5.73;2.57;;;;;;;;;;5057735;28;20231;-72
2021/01/14 01:23:51;;;;;;;7.73;2.00;;;;;;;;;;5057342;28;20458;-72
2021/01/14 01:26:19;;;;;;;10.00;2.25;;;;;;;;;;5057086;28;20466;-72
2021/01/14 01:28:47;;;;;;;4.47;2.27;;;;;;;;;;5056990;28;20222;-73
2021/01/14 01:31:14;;;;;;;4.00;1.80;;;;;;;;;;5057650;28;20564;-73
2021/01/14 01:33:42;;;;;;;6.57;3.00;;;;;;;;;;5057282;28;20461;-73
2021/01/14 01:36:12;;;;;;;2.70;1.50;;;;;;;;;;5057404;28;20728;-73
2021/01/14 01:38:41;;;;;;;8.97;2.20;;;;;;;;;;5056776;28;20459;-73
2021/01/14 01:41:08;;;;;;;3.20;1.73;;;;;;;;;;5056277;28;20461;-73
2021/01/14 01:43:36;;;;;;;2.70;1.53;;;;;;;;;;5056664;28;20523;-73
2021/01/14 01:46:03;;;;;;;5.47;1.95;;;;;;;;;;5056712;28;20550;-74
2021/01/14 01:48:31;;;;;;;5.37;2.27;;;;;;;;;;5056576;28;20599;-73
2021/01/14 01:51:01;;;;;;;3.57;1.83;;;;;;;;;;5056726;28;20771;-73
2021/01/14 01:53:31;;;;;;;4.77;2.40;;;;;;;;;;5057153;28;20878;-74
2021/01/14 01:55:58;;;;;;;5.23;2.40;;;;;;;;;;5057204;28;20587;-73
2021/01/14 01:58:32;;;;;;;5.73;2.43;;;;;;;;;;5056474;28;20465;-73
2021/01/14 02:01:00;;;;;;;7.50;2.50;;;;;;;;;;5056884;28;20458;-73
2021/01/14 02:03:31;;;;;;;2.83;1.40;;;;;;;;;;5056966;28;20508;-73
2021/01/14 02:05:59;;;;;;;4.40;2.57;;;;;;;;;;5056811;28;20519;-73
2021/01/14 02:08:30;;;;;;;4.27;1.97;;;;;;;;;;5056860;28;20457;-73
2021/01/14 02:10:59;;;;;;;3.90;1.40;;;;;;;;;;5056817;28;20454;-73
2021/01/14 02:13:30;;;;;;;2.83;1.60;;;;;;;;;;5056692;28;20469;-73
2021/01/14 02:15:59;;;;;;;2.50;1.63;;;;;;;;;;5056306;28;20454;-73
2021/01/14 02:18:27;;;;;;;5.70;2.30;;;;;;;;;;5056658;28;20454;-73
2021/01/14 02:20:56;;;;;;;3.37;1.77;;;;;;;;;;5056830;28;20449;-73
2021/01/14 02:23:27;;;;;;;2.27;1.70;;;;;;;;;;5056825;28;20555;-73
2021/01/14 02:26:09;;;;;;;6.30;1.80;;;;;;;;;;5057251;28;20476;-73
2021/01/14 02:28:37;;;;;;;8.13;2.40;;;;;;;;;;5056820;28;20461;-73
2021/01/14 02:31:06;;;;;;;3.13;1.73;;;;;;;;;;5056520;28;20449;-73
2021/01/14 02:33:33;;;;;;;5.17;2.43;;;;;;;;;;5056448;28;20470;-73
2021/01/14 02:36:00;;;;;;;3.47;2.20;;;;;;;;;;5057990;28;20454;-73
2021/01/14 02:38:28;;;;;;;7.10;1.90;;;;;;;;;;5060666;28;20782;-74
2021/01/14 02:40:55;;;;;;;3.37;1.53;;;;;;;;;;5060404;28;20462;-73
2021/01/14 02:43:23;;;;;;;4.00;1.80;;;;;;;;;;5060598;28;20761;-74
2021/01/14 02:45:51;;;;;;;4.40;1.70;;;;;;;;;;5060433;28;20469;-74
2021/01/14 02:48:21;;;;;;;4.23;1.90;;;;;;;;;;5060471;28;20527;-73
2021/01/14 02:50:49;;;;;;;5.47;2.07;;;;;;;;;;5060706;28;20465;-74
2021/01/14 02:53:17;;;;;;;3.20;2.03;;;;;;;;;;5060694;28;20460;-73
2021/01/14 02:55:45;;;;;;;5.40;1.97;;;;;;;;;;5060541;28;20885;-73
2021/01/14 02:58:13;;;;;;;3.30;2.90;;;;;;;;;;5060445;28;20461;-74
2021/01/14 03:00:41;;;;;;;3.53;2.13;;;;;;;;;;5060536;28;20461;-73
2021/01/14 03:03:08;;;;;;;3.20;2.37;;;;;;;;;;5060028;28;21108;-73
2021/01/14 03:05:35;;;;;;;3.53;2.10;;;;;;;;;;5059908;28;20465;-74
2021/01/14 03:08:03;;;;;;;2.90;2.33;;;;;;;;;;5060242;28;20450;-73
2021/01/14 03:10:30;;;;;;;4.80;2.20;;;;;;;;;;5060382;28;20936;-73
2021/01/14 03:12:58;;;;;;;6.93;2.47;;;;;;;;;;5060193;28;20523;-73
2021/01/14 03:15:25;;;;;;;8.83;2.57;;;;;;;;;;5060298;28;20724;-73
2021/01/14 03:17:53;;;;;;;4.90;2.60;;;;;;;;;;5059938;28;20454;-73
2021/01/14 03:20:21;;;;;;;3.37;1.90;;;;;;;;;;5059708;28;20481;-73
2021/01/14 03:22:48;;;;;;;6.67;2.80;;;;;;;;;;5059118;28;20497;-73
2021/01/14 03:25:15;;;;;;;2.80;1.80;;;;;;;;;;5059868;28;20484;-73
2021/01/14 03:27:43;;;;;;;4.13;2.33;;;;;;;;;;5059716;28;20780;-73
2021/01/14 03:30:12;;;;;;;5.20;2.87;;;;;;;;;;5059346;28;21003;-73
2021/01/14 03:32:39;;;;;;;5.10;2.60;;;;;;;;;;5059692;28;20722;-73
2021/01/14 03:35:08;;;;;;;8.07;3.20;;;;;;;;;;5059521;28;20458;-73
2021/01/14 03:37:38;;;;;;;14.27;4.10;;;;;;;;;;5059445;28;20450;-73
2021/01/14 03:40:06;;;;;;;8.63;3.63;;;;;;;;;;5059716;28;21096;-73
2021/01/14 03:42:33;;;;;;;7.10;2.83;;;;;;;;;;5059886;28;20992;-73
2021/01/14 03:45:00;;;;;;;5.40;2.90;;;;;;;;;;5059163;28;20458;-73
2021/01/14 03:47:28;;;;;;;3.80;2.70;;;;;;;;;;5057800;28;20548;-73
2021/01/14 03:50:01;;;;;;;5.20;2.70;;;;;;;;;;5058484;28;20461;-72
2021/01/14 03:52:29;;;;;;;4.70;2.97;;;;;;;;;;5059127;28;20458;-73
2021/01/14 03:54:57;;;;;;;5.33;2.63;;;;;;;;;;5059338;28;20532;-73
2021/01/14 03:57:24;;;;;;;4.83;2.60;;;;;;;;;;5059135;28;20458;-73
2021/01/14 03:59:52;;;;;;;4.07;2.83;;;;;;;;;;5059073;28;20762;-73
2021/01/14 04:02:19;;;;;;;5.30;2.80;;;;;;;;;;5059032;28;20485;-72
2021/01/14 04:04:46;;;;;;;5.37;3.33;;;;;;;;;;5059245;28;20473;-72
2021/01/14 04:07:15;;;;;;;5.77;3.83;;;;;;;;;;5059280;28;20454;-73
2021/01/14 04:09:43;;;;;;;5.53;3.80;;;;;;;;;;5058602;28;20442;-73
2021/01/14 04:12:11;;;;;;;7.57;4.50;;;;;;;;;;5058634;28;20878;-73
2021/01/14 04:14:38;;;;;;;5.00;3.03;;;;;;;;;;5058755;28;20572;-72
2021/01/14 04:17:05;;;;;;;4.00;2.80;;;;;;;;;;5058363;28;20480;-72
2021/01/14 04:19:33;;;;;;;6.50;3.67;;;;;;;;;;5058151;28;20454;-72
2021/01/14 04:22:00;;;;;;;7.93;3.87;;;;;;;;;;5058358;28;20489;-72
2021/01/14 04:24:36;;;;;;;4.50;3.20;;;;;;;;;;5058606;28;20468;-72
2021/01/14 04:27:05;;;;;;;7.07;3.90;;;;;;;;;;5058538;28;20535;-72
2021/01/14 04:29:32;;;;;;;6.00;3.33;;;;;;;;;;5058103;28;20553;-72
2021/01/14 04:32:00;;;;;;;4.67;2.73;;;;;;;;;;5056139;28;20469;-72
2021/01/14 04:34:28;;;;;;;5.30;3.23;;;;;;;;;;5072534;28;20445;-72
2021/01/14 04:36:58;;;;;;;6.10;3.40;;;;;;;;;;5078457;28;20469;-72
2021/01/14 04:39:25;;;;;;;5.33;2.93;;;;;;;;;;5078266;28;20445;-73
2021/01/14 04:41:59;;;;;;;6.80;3.63;;;;;;;;;;5078049;28;20931;-73
2021/01/14 04:44:28;;;;;;;6.47;4.20;;;;;;;;;;5078133;28;20455;-73
2021/01/14 04:47:00;;;;;;;7.00;3.80;;;;;;;;;;5077554;28;20465;-73
2021/01/14 04:49:30;;;;;;;5.90;4.03;;;;;;;;;;5077996;28;20483;-72
2021/01/14 04:52:01;;;;;;;5.83;3.43;;;;;;;;;;5077274;28;20551;-73
2021/01/14 04:54:33;;;;;;;5.03;3.77;;;;;;;;;;5077853;28;20449;-72
2021/01/14 04:57:04;;;;;;;7.40;4.10;;;;;;;;;;5077947;28;20457;-73
2021/01/14 04:59:33;;;;;;;8.97;4.47;;;;;;;;;;5077791;28;20465;-72
2021/01/14 05:02:00;;;;;;;7.50;4.07;;;;;;;;;;5077631;28;20958;-73
2021/01/14 05:04:31;;;;;;;7.10;3.63;;;;;;;;;;5077724;28;20506;-73
2021/01/14 05:07:06;;;;;;;7.77;3.67;;;;;;;;;;5077710;28;20471;-73
2021/01/14 05:09:34;;;;;;;6.27;4.00;;;;;;;;;;5077966;28;20456;-73
2021/01/14 05:12:01;;;;;;;7.83;3.97;;;;;;;;;;5077570;28;20468;-73
2021/01/14 05:14:28;;;;;;;6.60;3.80;;;;;;;;;;5077068;28;20660;-73
2021/01/14 05:16:57;;;;;;;6.47;4.10;;;;;;;;;;5076193;28;20530;-73
2021/01/14 05:19:25;;;;;;;5.90;3.40;;;;;;;;;;5077599;28;20537;-72
2021/01/14 05:21:52;;;;;;;8.00;4.20;;;;;;;;;;5077468;28;20484;-72
2021/01/14 05:24:20;;;;;;;7.10;4.10;;;;;;;;;;5076458;28;20464;-72
2021/01/14 05:26:49;;;;;;;7.13;3.80;;;;;;;;;;5077653;28;20951;-72
2021/01/14 05:29:17;;;;;;;6.47;2.83;;;;;;;;;;5077632;28;20457;-72
2021/01/14 05:31:45;;;;;;;6.90;4.00;;;;;;;;;;5077014;28;20518;-72
2021/01/14 05:34:14;;;;;;;6.43;3.90;;;;;;;;;;5076953;28;20875;-72
2021/01/14 05:37:02;;;;;;;9.80;4.13;;;;;;;;;;5076789;28;20461;-72
2021/01/14 05:39:31;;;;;;;6.07;4.03;;;;;;;;;;5077749;28;20478;-72
2021/01/14 05:42:09;;;;;;;6.53;4.53;;;;;;;;;;5076736;28;20805;-73
2021/01/14 05:44:37;;;;;;;10.27;5.93;;;;;;;;;;5076979;28;20460;-73
2021/01/14 05:47:22;;;;;;;8.37;4.20;;;;;;;;;;5077147;28;20533;-73
2021/01/14 05:50:01;;;;;;;8.20;3.43;;;;;;;;;;5076668;28;20921;-73
2021/01/14 05:52:29;;;;;;;6.47;4.03;;;;;;;;;;5076867;28;20468;-73
2021/01/14 05:55:00;;;;;;;6.40;3.70;;;;;;;;;;5076882;28;20449;-73
2021/01/14 05:57:30;;;;;;;8.53;5.77;;;;;;;;;;5076576;28;20461;-73
2021/01/14 05:59:59;;;;;;;8.90;4.40;;;;;;;;;;5076790;28;20442;-73
2021/01/14 06:02:30;;;;;;;11.00;4.70;;;;;;;;;;5076244;28;20481;-73
2021/01/14 06:05:01;;;;;;;7.67;4.27;;;;;;;;;;5075740;28;20461;-73
2021/01/14 06:07:42;;;;;;;9.67;4.53;;;;;;;;;;5076690;28;20739;-73
2021/01/14 06:10:09;;;;;;;7.43;4.13;;;;;;;;;;5075615;28;21091;-73
2021/01/14 06:12:49;;;;;;;11.30;3.83;;;;;;;;;;5076403;28;20729;-73
2021/01/14 06:15:17;;;;;;;6.47;4.30;;;;;;;;;;5076443;28;20457;-73
2021/01/14 06:17:45;;;;;;;14.63;4.23;;;;;;;;;;5075951;28;20538;-73
2021/01/14 06:20:13;;;;;;;8.40;4.40;;;;;;;;;;5075919;28;20743;-73
2021/01/14 06:22:44;;;;;;;6.40;3.50;;;;;;;;;;5076006;28;20489;-73
2021/01/14 06:25:12;;;;;;;8.83;3.93;;;;;;;;;;5076385;28;20489;-73
2021/01/14 06:27:40;;;;;;;9.67;5.23;;;;;;;;;;5074303;28;20489;-73
2021/01/14 06:30:09;;;;;;;5.30;3.90;;;;;;;;;;5074884;28;20530;-73
2021/01/14 06:32:38;;;;;;;8.07;5.07;;;;;;;;;;5075219;28;20703;-73
2021/01/14 06:35:06;;;;;;;6.63;4.23;;;;;;;;;;5063777;28;20454;-73
2021/01/14 06:37:36;;;;;;;7.30;4.23;;;;;;;;;;5054982;28;20809;-72
2021/01/14 06:40:06;;;;;;;7.07;4.13;;;;;;;;;;5054452;28;20785;-73
2021/01/14 06:42:34;;;;;;;6.40;4.70;;;;;;;;;;5055442;28;20493;-73
2021/01/14 06:45:02;;;;;;;8.63;5.43;;;;;;;;;;5054726;28;20779;-73
2021/01/14 06:47:33;;;;;;;7.70;4.90;;;;;;;;;;5055187;28;20839;-72
2021/01/14 06:50:18;;;;;;;8.80;5.53;;;;;;;;;;5054776;28;20458;-74
2021/01/14 06:52:46;;;;;;;10.77;5.73;;;;;;;;;;5055127;28;20483;-73
2021/01/14 06:55:16;;;;;;;8.27;4.53;;;;;;;;;;5054453;28;20466;-73
2021/01/14 06:57:48;;;;;;;9.87;5.37;;;;;;;;;;5054104;28;20461;-73
2021/01/14 07:00:20;;;;;;;7.03;4.80;;;;;;;;;;5054089;28;20483;-73
2021/01/14 07:03:07;;;;;;;9.00;5.57;;;;;;;;;;5053224;28;20520;-73
2021/01/14 07:05:39;;;;;;;8.57;4.80;;;;;;;;;;5052795;28;20863;-73
2021/01/14 07:08:24;;;;;;;7.00;5.10;;;;;;;;;;5053981;28;20461;-73
2021/01/14 07:11:00;;;;;;;10.60;5.27;;;;;;;;;;5054336;28;20461;-73
2021/01/14 07:13:31;;;;;;;7.03;4.60;;;;;;;;;;5054004;28;21093;-73
2021/01/14 07:15:59;;;;;;;7.47;5.07;;;;;;;;;;5053567;28;20881;-73
2021/01/14 07:18:28;;;;;;;6.90;5.30;;;;;;;;;;5053941;28;20817;-74
2021/01/14 07:20:58;;;;;;;6.17;4.40;;;;;;;;;;5052728;28;20826;-73
2021/01/14 07:23:27;;;;;;;7.57;5.17;;;;;;;;;;5056225;28;20759;-73
2021/01/14 07:25:56;;;;;;;6.67;4.90;;;;;;;;;;5057144;28;20887;-72
2021/01/14 07:28:23;;;;;;;7.40;4.70;;;;;;;;;;5057698;28;20457;-73
2021/01/14 07:30:54;;;;;;;8.40;5.33;;;;;;;;;;5057546;28;20469;-72
2021/01/14 07:33:29;;;;;;;8.50;5.07;;;;;;;;;;5056578;28;20531;-73
2021/01/14 07:36:16;;;;;;;9.20;4.67;;;;;;;;;;5057625;28;20473;-73
2021/01/14 07:38:48;;;;;;;8.17;4.83;;;;;;;;;;5056759;28;20874;-73
2021/01/14 07:41:16;;;;;;;7.70;4.80;;;;;;;;;;5058035;28;20450;-74
2021/01/14 07:43:45;;;;;;;12.20;5.40;;;;;;;;;;5057153;28;20862;-73
2021/01/14 07:46:15;;;;;;;6.90;4.20;;;;;;;;;;5057567;28;20454;-73
2021/01/14 07:48:42;;;;;;;7.10;4.90;;;;;;;;;;5057533;28;20531;-73
2021/01/14 07:51:10;;;;;;;12.20;5.10;;;;;;;;;;5058031;28;20960;-73
2021/01/14 07:53:40;;;;;;;10.70;5.43;;;;;;;;;;5056580;28;20526;-75
2021/01/14 07:56:27;;;;;;;12.33;6.67;;;;;;;;;;5057689;28;20928;-74
2021/01/14 07:58:56;;;;;;;15.57;6.90;;;;;;;;;;5058159;28;20460;-73
2021/01/14 08:01:24;;;;;;;13.27;7.60;;;;;;;;;;5058098;28;20627;-73
2021/01/14 08:03:54;;;;;;;16.37;9.03;;;;;;;;;;5057170;28;20485;-73
2021/01/14 08:06:24;;;;;;;8.77;4.93;;;;;;;;;;5057261;28;20461;-73
2021/01/14 08:08:59;;;;;;;8.80;4.60;;;;;;;;;;5056324;28;20519;-73
2021/01/14 08:11:27;;;;;;;5.43;3.60;;;;;;;;;;5056543;28;20469;-73
2021/01/14 08:14:02;;;;;;;11.20;4.63;;;;;;;;;;5057016;28;20534;-73
2021/01/14 08:16:34;;;;;;;7.87;4.63;;;;;;;;;;5057250;28;20453;-73
2021/01/14 08:19:29;;;;;;;8.03;4.50;;;;;;;;;;5057385;28;20816;-73
2021/01/14 08:22:05;;;;;;;6.43;4.00;;;;;;;;;;5055303;28;20550;-72
2021/01/14 08:24:46;;;;;;;11.73;5.40;;;;;;;;;;5057609;28;20508;-73
2021/01/14 08:27:23;;;;;;;12.23;6.23;;;;;;;;;;5058029;28;20445;-72
2021/01/14 08:29:57;;;;;;;10.77;6.07;;;;;;;;;;5056697;28;20518;-74
2021/01/14 08:32:35;;;;;;;6.93;4.33;;;;;;;;;;5055742;28;20802;-74
2021/01/14 08:35:04;;;;;;;8.30;4.80;;;;;;;;;;5055917;28;20536;-74
2021/01/14 08:37:32;;;;;;;8.07;5.70;;;;;;;;;;5056268;28;20576;-74
2021/01/14 08:40:01;;;;;;;11.40;6.60;;;;;;;;;;5056932;28;20482;-74
2021/01/14 08:42:35;;;;;;;7.03;5.47;;;;;;;;;;5056609;28;20539;-73
2021/01/14 08:45:10;;;;;;;13.40;5.47;;;;;;;;;;5056197;28;20485;-73
2021/01/14 08:48:01;;;;;;;8.13;5.17;;;;;;;;;;5056281;28;20463;-73
2021/01/14 08:50:41;;;;;;;8.90;5.57;;;;;;;;;;5055967;28;20457;-73
2021/01/14 08:53:11;;;;;;;10.30;6.40;;;;;;;;;;5055196;28;20846;-73
2021/01/14 08:55:39;;;;;;;26.37;6.77;;;;;;;;;;5056158;28;20906;-73
2021/01/14 08:58:08;;;;;;;8.80;5.67;;;;;;;;;;5056380;28;20461;-73
2021/01/14 09:00:36;;;;;;;7.33;4.83;;;;;;;;;;5054302;28;20453;-72
2021/01/14 09:03:04;;;;;;;8.43;5.33;;;;;;;;;;5055464;28;20562;-71
2021/01/14 09:05:32;;;;;;;8.77;5.60;;;;;;;;;;5055672;28;20461;-73
2021/01/14 09:08:34;;;;;;;8.83;6.17;;;;;;;;;;5055240;28;20472;-72
2021/01/14 09:11:01;;;;;;;9.77;5.10;;;;;;;;;;5055624;28;20758;-72
2021/01/14 09:13:30;;;;;;;7.80;5.50;;;;;;;;;;5055405;28;20753;-72
2021/01/14 09:15:58;;;;;;;10.27;6.10;;;;;;;;;;5056223;28;20865;-73
2021/01/14 09:18:36;;;;;;;7.00;5.67;;;;;;;;;;5054814;28;20497;-72
2021/01/14 09:21:11;;;;;;;9.40;6.10;;;;;;;;;;5056995;28;20450;-73
2021/01/14 09:23:39;;;;;;;8.00;4.77;;;;;;;;;;5056150;28;20493;-72
2021/01/14 09:26:11;;;;;;;9.33;5.77;;;;;;;;;;5056248;28;20485;-73
2021/01/14 09:28:40;;;;;;;7.13;4.50;;;;;;;;;;5056140;28;20470;-73
2021/01/14 09:31:09;;;;;;;10.67;6.50;;;;;;;;;;5056038;28;20485;-72
2021/01/14 09:33:37;;;;;;;8.47;5.23;;;;;;;;;;5056605;28;20481;-72
2021/01/14 09:36:12;;;;;;;6.53;4.30;;;;;;;;;;5055727;28;20446;-73
2021/01/14 09:38:45;;;;;;;7.77;4.70;;;;;;;;;;5055236;28;20470;-72
2021/01/14 09:41:29;;;;;;;9.00;5.60;;;;;;;;;;5054855;28;20469;-73
2021/01/14 09:44:07;;;;;;;8.37;4.50;;;;;;;;;;5055402;28;20498;-73
2021/01/14 09:46:45;;;;;;;7.60;4.80;;;;;;;;;;5057624;28;20468;-73
2021/01/14 09:49:23;;;;;;;7.10;4.67;;;;;;;;;;5057094;28;20473;-73
2021/01/14 09:52:10;;;;;;;9.00;5.00;;;;;;;;;;5057536;28;20811;-73
2021/01/14 09:54:43;;;;;;;6.17;4.20;;;;;;;;;;5056024;28;20638;-71
2021/01/14 09:57:11;;;;;;;8.37;4.80;;;;;;;;;;5054596;28;20773;-74
2021/01/14 10:00:13;;;;;;;9.73;6.50;;;;;;;;;;5057473;28;20458;-72
2021/01/14 10:02:48;;;;;;;11.33;7.30;;;;;;;;;;5054183;28;20575;-72
2021/01/14 10:05:26;;;;;;;7.13;4.80;;;;;;;;;;5063311;28;20471;-71
2021/01/14 10:08:05;;;;;;;10.90;5.30;;;;;;;;;;5035310;28;20516;-73
2021/01/14 10:10:47;;;;;;;13.17;5.00;;;;;;;;;;5035779;28;20835;-73
2021/01/14 10:13:39;;;;;;;;;;;;;;;;;;;;;
2021/01/14 10:16:21;;;;;;;7.37;4.00;;;;;;;;;;5035051;28;20457;-73
2021/01/14 10:18:49;;;;;;;9.20;5.77;;;;;;;;;;5034925;28;20501;-73
2021/01/14 10:21:23;;;;;;;7.63;5.13;;;;;;;;;;5039551;28;20470;-73
2021/01/14 10:23:57;;;;;;;6.40;4.17;;;;;;;;;;5053636;28;20854;-73
2021/01/14 10:26:29;;;;;;;8.33;5.17;;;;;;;;;;5054737;28;20465;-72
2021/01/14 10:29:05;;;;;;;10.70;5.30;;;;;;;;;;5054722;28;20774;-73
2021/01/14 10:31:37;;;;;;;11.73;5.30;;;;;;;;;;5054718;28;20530;-72
2021/01/14 10:34:10;;;;;;;6.03;4.70;;;;;;;;;;5054139;28;20969;-72
2021/01/14 10:36:52;;;;;;;8.90;5.90;;;;;;;;;;5055440;28;20486;-72
2021/01/14 10:39:19;;;;;;;7.27;3.63;;;;;;;;;;5053468;28;20499;-73
2021/01/14 10:41:56;;;;;;;7.90;4.87;;;;;;;;;;5053890;28;20461;-74
2021/01/14 10:44:24;;;;;;;7.60;4.17;;;;;;;;;;5055762;28;20459;-73
2021/01/14 10:46:55;;;;;;;7.20;4.20;;;;;;;;;;5050088;28;20461;-71
2021/01/14 10:49:32;;;;;;;13.27;5.87;;;;;;;;;;5054865;28;20469;-73
2021/01/14 10:52:05;;;;;;;8.13;4.60;;;;;;;;;;5054550;28;20541;-73
2021/01/14 10:54:38;;;;;;;8.50;5.00;;;;;;;;;;5054328;28;20454;-74
2021/01/14 10:57:06;;;;;;;8.67;5.43;;;;;;;;;;5055562;28;20507;-73
2021/01/14 10:59:34;;;;;;;7.23;4.97;;;;;;;;;;5055738;28;20753;-73
2021/01/14 11:02:09;;;;;;;7.27;4.57;;;;;;;;;;5071463;28;20479;-73
2021/01/14 11:04:36;;;;;;;5.67;3.83;;;;;;;;;;5077527;28;20456;-73
2021/01/14 11:07:13;;;;;;;8.43;4.30;;;;;;;;;;5074059;28;20452;-73
2021/01/14 11:09:50;;;;;;;7.97;5.03;;;;;;;;;;5056737;28;20479;-73
2021/01/14 11:12:27;;;;;;;9.90;4.90;;;;;;;;;;5059333;28;20500;-72
2021/01/14 11:15:11;;;;;;;7.93;3.53;;;;;;;;;;5058265;28;20552;-72
2021/01/14 11:17:46;;;;;;;9.47;4.97;;;;;;;;;;5057614;28;20636;-75
2021/01/14 11:20:14;;;;;;;10.63;5.10;;;;;;;;;;5064615;28;20760;-73
2021/01/14 11:22:42;;;;;;;10.33;4.07;;;;;;;;;;5077612;28;20489;-73
2021/01/14 11:25:10;;;;;;;8.67;4.77;;;;;;;;;;5077182;28;20483;-74
2021/01/14 11:27:37;;;;;;;7.40;4.60;;;;;;;;;;5077700;28;20475;-73
2021/01/14 11:30:14;;;;;;;7.20;4.87;;;;;;;;;;5078279;28;20757;-73
2021/01/14 11:32:50;;;;;;;7.17;4.73;;;;;;;;;;5076977;28;20468;-73
2021/01/14 11:35:20;;;;;;;9.07;4.90;;;;;;;;;;5078353;28;20863;-73
2021/01/14 11:37:47;;;;;;;7.33;4.90;;;;;;;;;;5077629;28;20475;-74
2021/01/14 11:40:17;;;;;;;10.60;4.20;;;;;;;;;;5077832;28;20461;-73
2021/01/14 11:42:46;;;;;;;6.53;5.13;;;;;;;;;;5077189;28;20594;-71
2021/01/14 11:45:33;;;;;;;8.57;4.90;;;;;;;;;;5078726;28;20453;-73
2021/01/14 11:48:08;;;;;;;15.40;6.20;;;;;;;;;;5078673;28;20476;-72
2021/01/14 11:50:57;;;;;;;8.87;5.03;;;;;;;;;;5078800;28;20453;-73
2021/01/14 11:53:35;;;;;;;6.67;4.53;;;;;;;;;;5078015;28;20528;-72
2021/01/14 11:56:06;;;;;;;11.43;4.63;;;;;;;;;;5078350;28;20437;-73
2021/01/14 11:58:34;;;;;;;7.43;4.37;;;;;;;;;;5073860;28;20466;-74
2021/01/14 12:01:05;;;;;;;11.33;5.00;;;;;;;;;;5056847;28;20554;-73
2021/01/14 12:03:52;;;;;;;9.83;4.77;;;;;;;;;;5056733;28;20593;-74
2021/01/14 12:06:47;;;;;;;10.90;5.50;;;;;;;;;;5057862;28;20473;-73
2021/01/14 12:09:20;;;;;;;8.47;4.83;;;;;;;;;;5057712;28;20476;-73
2021/01/14 12:12:00;;;;;;;10.53;5.60;;;;;;;;;;5059152;28;20446;-72
2021/01/14 12:14:38;;;;;;;9.80;4.33;;;;;;;;;;5058427;28;20855;-73
2021/01/14 12:17:05;;;;;;;12.13;5.93;;;;;;;;;;5058268;28;20460;-73
2021/01/14 12:19:43;;;;;;;9.77;6.13;;;;;;;;;;5057878;28;20531;-73
2021/01/14 12:22:19;;;;;;;8.50;5.00;;;;;;;;;;5057222;28;20507;-74
2021/01/14 12:24:46;;;;;;;15.33;8.53;;;;;;;;;;5057707;28;20763;-74
2021/01/14 12:27:15;;;;;;;7.37;5.03;;;;;;;;;;5058821;28;20545;-73
2021/01/14 12:29:47;;;;;;;6.83;5.33;;;;;;;;;;5058041;28;20457;-73
2021/01/14 12:32:37;;;;;;;7.97;5.00;;;;;;;;;;5057204;28;20824;-74
2021/01/14 12:35:09;;;;;;;7.73;4.60;;;;;;;;;;5057603;28;20590;-73
2021/01/14 12:37:43;;;;;;;8.37;4.30;;;;;;;;;;5056490;28;20867;-72
2021/01/14 12:40:12;;;;;;;10.43;5.07;;;;;;;;;;5057716;28;20492;-72
2021/01/14 12:42:40;;;;;;;7.17;4.67;;;;;;;;;;5056418;28;20504;-72
2021/01/14 12:45:09;;;;;;;7.33;4.50;;;;;;;;;;5056216;28;20477;-72
2021/01/14 12:47:50;;;;;;;7.23;4.87;;;;;;;;;;5057309;28;20497;-72
2021/01/14 12:50:26;;;;;;;6.70;4.03;;;;;;;;;;5056896;28;20783;-73
2021/01/14 12:53:02;;;;;;;6.27;4.73;;;;;;;;;;5058020;28;20789;-72
2021/01/14 12:55:41;;;;;;;8.63;4.83;;;;;;;;;;5057573;28;20468;-73
2021/01/14 12:58:35;;;;;;;;;;;;;;;;;;;;;
2021/01/14 13:01:12;;;;;;;5.70;4.43;;;;;;;;;;5056780;28;20869;-74
2021/01/14 13:03:54;;;;;;;9.47;5.33;;;;;;;;;;5057323;28;20500;-71
2021/01/14 13:06:48;;;;;;;7.70;4.40;;;;;;;;;;5057000;28;20450;-72
2021/01/14 13:09:27;;;;;;;9.77;4.73;;;;;;;;;;5056820;28;20480;-72
2021/01/14 13:15:01;;;;;;;15.20;6.20;;;;;;;;;;5044331;28;20493;-72
2021/01/14 13:17:34;;;;;;;11.43;6.00;;;;;;;;;;5057161;28;20496;-72
2021/01/14 13:23:08;;;;;;;12.10;5.83;;;;;;;;;;5054482;28;20473;-73
2021/01/14 13:25:47;;;;;;;11.93;5.13;;;;;;;;;;5070464;28;20532;-72
2021/01/14 13:28:18;;;;;;;7.47;5.10;;;;;;;;;;5075286;28;20513;-72
2021/01/14 13:30:50;;;;;;;10.10;4.87;;;;;;;;;;5075512;28;20504;-73
2021/01/14 13:33:30;;;;;;;9.53;5.73;;;;;;;;;;5073415;28;20444;-72
2021/01/14 13:36:09;;;;;;;8.20;5.80;;;;;;;;;;5075268;28;20514;-72
2021/01/14 13:38:45;;;;;;;10.77;5.63;;;;;;;;;;5075952;28;21104;-72
2021/01/14 13:41:27;;;;;;;7.97;5.20;;;;;;;;;;5076762;28;20931;-72
2021/01/14 13:44:02;;;;;;;10.50;5.83;;;;;;;;;;5076654;28;20480;-73
2021/01/14 13:46:33;;;;;;;8.77;5.90;;;;;;;;;;5076814;28;20456;-74
2021/01/14 13:49:18;;;;;;;6.53;5.77;;;;;;;;;;5076771;28;20461;-72
2021/01/14 13:51:53;;;;;;;9.43;4.90;;;;;;;;;;5076580;28;20855;-73
2021/01/14 13:54:27;;;;;;;9.10;5.50;;;;;;;;;;5076432;28;20524;-73
2021/01/14 13:57:05;;;;;;;8.17;5.07;;;;;;;;;;5076117;28;20506;-72
2021/01/14 13:59:54;;;;;;;7.90;5.33;;;;;;;;;;5075784;28;20518;-72
2021/01/14 14:05:12;;;;;;;8.80;5.53;;;;;;;;;;5074113;28;20552;-73
2021/01/14 14:07:41;;;;;;;8.13;5.53;;;;;;;;;;5075357;28;20794;-73
2021/01/14 14:10:12;;;;;;;19.37;6.07;;;;;;;;;;5075288;28;20545;-72
2021/01/14 14:12:45;;;;;;;11.30;6.30;;;;;;;;;;5074001;28;20872;-72
2021/01/14 14:15:16;;;;;;;10.37;5.97;;;;;;;;;;5073787;28;20722;-72
2021/01/14 14:17:45;;;;;;;6.60;4.93;;;;;;;;;;5073571;28;20622;-72
2021/01/14 14:20:17;;;;;;;6.70;5.00;;;;;;;;;;5072999;28;20571;-72
2021/01/14 14:22:46;;;;;;;8.80;5.53;;;;;;;;;;5073636;28;20921;-72
2021/01/14 14:25:14;;;;;;;8.00;4.97;;;;;;;;;;5073851;28;20464;-72
2021/01/14 14:27:43;;;;;;;9.70;5.00;;;;;;;;;;5074621;28;20514;-71
2021/01/14 14:30:22;;;;;;;17.10;6.30;;;;;;;;;;5075084;28;20447;-72
2021/01/14 14:32:50;;;;;;;11.43;6.33;;;;;;;;;;5082414;28;20445;-71
2021/01/14 14:35:24;;;;;;;7.57;5.00;;;;;;;;;;5085504;28;20469;-74
2021/01/14 14:38:23;;;;;;;9.90;5.97;;;;;;;;;;5078169;28;20436;-72
2021/01/14 14:40:57;;;;;;;10.30;6.13;;;;;;;;;;5078125;28;20861;-71
2021/01/14 14:43:32;;;;;;;10.23;6.27;;;;;;;;;;5078497;28;20483;-73
2021/01/14 14:48:56;;;;;;;9.73;4.97;;;;;;;;;;5076905;28;20449;-73
2021/01/14 14:51:26;;;;;;;7.40;5.57;;;;;;;;;;5077356;28;20436;-73
2021/01/14 14:54:01;;;;;;;9.40;5.87;;;;;;;;;;5078488;28;20444;-72
2021/01/14 14:56:32;;;;;;;12.57;6.33;;;;;;;;;;5077042;28;20439;-71
2021/01/14 14:59:06;;;;;;;9.17;5.70;;;;;;;;;;5077813;28;21117;-72
2021/01/14 15:01:51;;;;;;;8.37;6.00;;;;;;;;;;5078432;28;20512;-73
2021/01/14 15:04:23;;;;;;;10.50;5.83;;;;;;;;;;5077105;28;20593;-73
2021/01/14 15:07:02;;;;;;;7.50;5.50;;;;;;;;;;5077378;28;20860;-72
2021/01/14 15:09:32;;;;;;;9.00;5.80;;;;;;;;;;5077097;28;20444;-72
2021/01/14 15:12:00;;;;;;;13.70;6.07;;;;;;;;;;5076752;28;20456;-72
2021/01/14 15:14:30;;;;;;;8.30;5.63;;;;;;;;;;5077253;28;20542;-73
2021/01/14 15:16:57;;;;;;;10.80;5.93;;;;;;;;;;5077282;28;20441;-74
2021/01/14 15:19:25;;;;;;;9.80;5.90;;;;;;;;;;5077056;28;20453;-72
2021/01/14 15:21:53;;;;;;;9.50;6.10;;;;;;;;;;5076937;28;20461;-72
2021/01/14 15:24:23;;;;;;;8.00;6.20;;;;;;;;;;5076497;28;20480;-73
2021/01/14 15:26:54;;;;;;;9.60;7.73;;;;;;;;;;5077302;28;21128;-72